Time;durP1;ratioP1;P1;durP2;ratioP2;P2;SDS_P1;SDS_P2;PMS_P1;PMS_P2;Temp;Humidity;BMP_temperature;BMP_pressure;BME280_temperature;BME280_humidity;BME280_pressure;Samples;Min_cycle;Max_cycle;Signal;HPM_P1;HPM_P2
2022/09/22 00:01:22;;;;;;;1.33;1.00;;;;;;;-146.19;100.00;65364.44;10285524;28;20101;-54
2022/09/22 00:06:46;;;;;;;1.38;0.95;;;;;;;-146.19;100.00;65364.44;10308878;28;20057;-54
2022/09/22 00:12:05;;;;;;;0.88;0.88;;;;;;;-146.19;100.00;65364.44;10297113;28;20054;-53
2022/09/22 00:17:25;;;;;;;1.05;0.90;;;;;;;-146.19;100.00;65364.44;10286529;28;20051;-55
2022/09/22 00:22:49;;;;;;;0.90;0.90;;;;;;;-146.19;100.00;65364.44;10302632;28;20132;-53
2022/09/22 00:28:10;;;;;;;1.52;1.00;;;;;;;-146.19;100.00;65364.44;10297608;28;20062;-53
2022/09/22 00:33:30;;;;;;;1.10;0.90;;;;;;;-146.19;100.00;65364.44;10286439;28;20061;-53
2022/09/22 00:38:50;;;;;;;1.17;1.08;;;;;;;-146.19;100.00;65364.44;10293437;28;20055;-54
2022/09/22 00:44:25;;;;;;;1.83;1.10;;;;;;;-146.19;100.00;65364.44;10294638;28;20062;-55
2022/09/22 00:50:04;;;;;;;1.33;0.93;;;;;;;-146.19;100.00;65364.44;10282049;28;20593;-54
2022/09/22 00:55:44;;;;;;;1.33;1.10;;;;;;;-146.19;100.00;65364.44;10293994;28;20055;-54
2022/09/22 01:01:03;;;;;;;1.45;1.00;;;;;;;-146.19;100.00;65364.44;10294665;28;20429;-62
2022/09/22 01:06:25;;;;;;;1.58;1.10;;;;;;;-146.19;100.00;65364.44;10294698;28;20046;-61
2022/09/22 01:11:45;;;;;;;1.05;1.00;;;;;;;-146.19;100.00;65364.44;10280696;28;20055;-62
2022/09/22 01:17:16;;;;;;;1.00;0.88;;;;;;;-146.19;100.00;65364.44;10300133;28;20094;-61
2022/09/22 01:22:54;;;;;;;1.00;0.90;;;;;;;-146.19;100.00;65364.44;10273084;28;20064;-62
2022/09/22 01:28:43;;;;;;;1.75;0.93;;;;;;;-146.19;100.00;65364.44;10316762;28;20047;-62
2022/09/22 01:34:03;;;;;;;;;;;;;;;-146.19;100.00;65364.44;10297620;28;20070;-62
2022/09/22 01:39:27;;;;;;;2.13;0.82;;;;;;;-146.19;100.00;65364.44;10292719;28;19929;-62
2022/09/22 01:44:49;;;;;;;1.00;0.90;;;;;;;-146.19;100.00;65364.44;10292297;28;20055;-62
2022/09/22 01:50:27;;;;;;;0.95;0.85;;;;;;;-146.19;100.00;65364.44;10305239;28;20045;-61
2022/09/22 01:55:52;;;;;;;0.93;0.80;;;;;;;-146.19;100.00;65364.44;10304740;28;20077;-61
2022/09/22 02:01:14;;;;;;;0.88;0.88;;;;;;;-146.19;100.00;65364.44;10317902;28;20046;-62
2022/09/22 02:06:47;;;;;;;1.25;0.80;;;;;;;-146.19;100.00;65364.44;10314962;28;20046;-62
2022/09/22 02:12:07;;;;;;;1.17;0.88;;;;;;;-146.19;100.00;65364.44;10326623;28;20054;-62
2022/09/22 02:17:27;;;;;;;1.20;1.10;;;;;;;-146.19;100.00;65364.44;10316789;28;20047;-62
2022/09/22 02:22:47;;;;;;;0.77;0.77;;;;;;;-146.19;100.00;65364.44;10327799;28;20069;-61
2022/09/22 02:28:06;;;;;;;1.50;1.10;;;;;;;-146.19;100.00;65364.44;10295783;28;20097;-62
2022/09/22 02:33:27;;;;;;;0.95;0.90;;;;;;;-146.19;100.00;65364.44;10297503;28;20415;-61
2022/09/22 02:39:08;;;;;;;0.88;0.88;;;;;;;-146.19;100.00;65364.44;10296691;28;20505;-62
2022/09/22 02:44:42;;;;;;;1.10;0.80;;;;;;;-146.19;100.00;65364.44;10296511;28;20055;-61
2022/09/22 02:50:04;;;;;;;1.13;1.00;;;;;;;-146.19;100.00;65364.44;10288524;28;20422;-62
2022/09/22 02:55:24;;;;;;;0.77;0.77;;;;;;;-146.19;100.00;65364.44;10284309;28;20046;-62
2022/09/22 03:00:44;;;;;;;0.70;0.70;;;;;;;-146.19;100.00;65364.44;10297750;28;20077;-62
2022/09/22 03:06:03;;;;;;;0.80;0.80;;;;;;;-146.19;100.00;65364.44;10299187;28;20056;-62
2022/09/22 03:11:25;;;;;;;0.80;0.80;;;;;;;-146.19;100.00;65364.44;10299600;28;20055;-62
2022/09/22 03:16:45;;;;;;;0.85;0.82;;;;;;;-146.19;100.00;65364.44;10289980;28;20054;-61
2022/09/22 03:22:04;;;;;;;0.80;0.80;;;;;;;-146.19;100.00;65364.44;10298752;28;20061;-62
2022/09/22 03:27:23;;;;;;;1.20;0.82;;;;;;;-146.19;100.00;65364.44;10331944;28;20054;-62
2022/09/22 03:32:42;;;;;;;0.88;0.85;;;;;;;-146.19;100.00;65364.44;10335100;28;20084;-62
2022/09/22 03:38:03;;;;;;;0.90;0.90;;;;;;;-146.19;100.00;65364.44;10337214;28;20042;-62
2022/09/22 03:43:23;;;;;;;0.93;0.88;;;;;;;-146.19;100.00;65364.44;10313285;28;20403;-62
2022/09/22 03:48:43;;;;;;;0.80;0.80;;;;;;;-146.19;100.00;65364.44;10297583;28;20110;-62
2022/09/22 03:54:02;;;;;;;0.70;0.70;;;;;;;-146.19;100.00;65364.44;10295653;28;20053;-62
2022/09/22 03:59:22;;;;;;;1.00;0.90;;;;;;;-146.19;100.00;65364.44;10295813;28;20054;-62
2022/09/22 04:04:41;;;;;;;0.90;0.90;;;;;;;-146.19;100.00;65364.44;10295367;28;20109;-62
2022/09/22 04:10:01;;;;;;;0.70;0.70;;;;;;;-146.19;100.00;65364.44;10307958;28;20089;-62
2022/09/22 04:15:20;;;;;;;0.73;0.73;;;;;;;-146.19;100.00;65364.44;10285417;28;20059;-62
2022/09/22 04:20:41;;;;;;;1.00;0.90;;;;;;;-146.19;100.00;65364.44;10312052;28;20058;-61
2022/09/22 04:26:01;;;;;;;1.10;0.98;;;;;;;-146.19;100.00;65364.44;10315613;28;20046;-62
2022/09/22 04:31:21;;;;;;;1.45;1.00;;;;;;;-146.19;100.00;65364.44;10332562;28;20490;-61
2022/09/22 04:36:41;;;;;;;0.88;0.88;;;;;;;-146.19;100.00;65364.44;10330061;28;20046;-62
2022/09/22 04:42:00;;;;;;;0.90;0.80;;;;;;;-146.19;100.00;65364.44;10324690;28;20049;-62
2022/09/22 04:47:19;;;;;;;0.90;0.90;;;;;;;-146.19;100.00;65364.44;10303492;28;20062;-59
2022/09/22 04:52:38;;;;;;;0.88;0.80;;;;;;;-146.19;100.00;65364.44;10323226;28;20513;-62
2022/09/22 04:57:58;;;;;;;2.25;0.93;;;;;;;-146.19;100.00;65364.44;10314153;28;20047;-61
2022/09/22 05:03:18;;;;;;;0.63;0.60;;;;;;;-146.19;100.00;65364.44;10296344;28;20046;-60
2022/09/22 05:08:37;;;;;;;2.42;0.90;;;;;;;-146.19;100.00;65364.44;10291159;28;20051;-61
2022/09/22 05:13:57;;;;;;;3.53;1.38;;;;;;;-146.19;100.00;65364.44;10276390;28;20058;-61
2022/09/22 05:19:16;;;;;;;12.95;2.50;;;;;;;-146.19;100.00;65364.44;10307970;28;20051;-61
2022/09/22 05:24:36;;;;;;;10.65;3.13;;;;;;;-146.19;100.00;65364.44;10297274;28;20564;-61
2022/09/22 05:29:55;;;;;;;10.25;2.72;;;;;;;-146.19;100.00;65364.44;10291265;28;20047;-61
2022/09/22 05:35:20;;;;;;;8.50;3.15;;;;;;;-146.19;100.00;65364.44;10291464;28;20055;-61
2022/09/22 05:40:39;;;;;;;8.40;2.58;;;;;;;-146.19;100.00;65364.44;10281454;28;20054;-61
2022/09/22 05:45:59;;;;;;;9.02;2.53;;;;;;;-146.19;100.00;65364.44;10291409;28;20066;-61
2022/09/22 05:51:18;;;;;;;9.52;2.60;;;;;;;-146.19;100.00;65364.44;10281603;28;20066;-62
2022/09/22 05:56:37;;;;;;;6.97;2.53;;;;;;;-146.19;100.00;65364.44;10290318;28;20061;-61
2022/09/22 06:01:57;;;;;;;10.35;2.80;;;;;;;-146.19;100.00;65364.44;10291022;28;20086;-61
2022/09/22 06:07:19;;;;;;;10.73;2.67;;;;;;;-146.19;100.00;65364.44;10297990;28;20047;-61
2022/09/22 06:12:38;;;;;;;6.32;2.75;;;;;;;-146.19;100.00;65364.44;10300375;28;20054;-61
2022/09/22 06:17:59;;;;;;;7.82;2.42;;;;;;;-146.19;100.00;65364.44;10298304;28;20051;-62
2022/09/22 06:23:18;;;;;;;6.88;2.25;;;;;;;-146.19;100.00;65364.44;10317701;28;20094;-60
2022/09/22 06:28:37;;;;;;;6.05;2.30;;;;;;;-146.19;100.00;65364.44;10303725;28;20050;-61
2022/09/22 06:33:56;;;;;;;8.43;2.70;;;;;;;-146.19;100.00;65364.44;10304171;28;20042;-61
2022/09/22 06:39:16;;;;;;;5.80;2.28;;;;;;;-146.19;100.00;65364.44;10292225;28;20518;-61
2022/09/22 06:44:35;;;;;;;7.35;2.50;;;;;;;-146.19;100.00;65364.44;10296674;28;20067;-60
2022/09/22 06:49:55;;;;;;;4.63;2.08;;;;;;;-146.19;100.00;65364.44;10316076;28;20105;-60
2022/09/22 06:55:18;;;;;;;4.85;1.95;;;;;;;-146.19;100.00;65364.44;10290740;28;20058;-61
2022/09/22 07:00:40;;;;;;;5.25;2.20;;;;;;;-146.19;100.00;65364.44;10312744;28;20049;-61
2022/09/22 07:06:01;;;;;;;6.50;2.40;;;;;;;-146.19;100.00;65364.44;10289037;28;20043;-57
2022/09/22 07:11:22;;;;;;;5.72;2.20;;;;;;;-146.19;100.00;65364.44;10314083;28;20043;-61
2022/09/22 07:16:42;;;;;;;4.70;2.38;;;;;;;-146.19;100.00;65364.44;10309937;28;20057;-62
2022/09/22 07:22:02;;;;;;;3.95;2.03;;;;;;;-146.19;100.00;65364.44;10314346;28;20129;-61
2022/09/22 07:27:24;;;;;;;5.40;1.92;;;;;;;-146.19;100.00;65364.44;10318108;28;20054;-61
2022/09/22 07:32:44;;;;;;;3.33;1.83;;;;;;;-146.19;100.00;65364.44;10305283;28;20505;-61
2022/09/22 07:38:03;;;;;;;4.57;2.17;;;;;;;-146.19;100.00;65364.44;10310074;28;20058;-61
2022/09/22 07:43:23;;;;;;;4.97;2.00;;;;;;;-146.19;100.00;65364.44;10286389;28;20061;-61
2022/09/22 07:48:45;;;;;;;4.43;2.05;;;;;;;-146.19;100.00;65364.44;10295057;28;20054;-61
2022/09/22 07:54:08;;;;;;;3.45;1.90;;;;;;;-146.19;100.00;65364.44;10293548;28;20077;-61
2022/09/22 07:59:27;;;;;;;3.72;1.90;;;;;;;-146.19;100.00;65364.44;10301787;28;20105;-62
2022/09/22 08:04:47;;;;;;;4.80;1.92;;;;;;;-146.19;100.00;65364.44;10311806;28;20054;-60
2022/09/22 08:10:06;;;;;;;2.92;2.00;;;;;;;-146.19;100.00;65364.44;10294556;28;20055;-61
2022/09/22 08:15:26;;;;;;;2.50;1.58;;;;;;;-146.19;100.00;65364.44;10290971;28;20059;-61
2022/09/22 08:20:45;;;;;;;3.42;1.80;;;;;;;-146.19;100.00;65364.44;10287713;28;20051;-61
2022/09/22 08:26:07;;;;;;;3.13;1.50;;;;;;;-146.19;100.00;65364.44;10320581;28;20453;-62
2022/09/22 08:31:26;;;;;;;2.80;1.90;;;;;;;-146.19;100.00;65364.44;10327106;28;20039;-61
2022/09/22 08:36:47;;;;;;;3.55;1.95;;;;;;;-146.19;100.00;65364.44;10306310;28;20046;-61
2022/09/22 08:42:12;;;;;;;3.08;1.63;;;;;;;-146.19;100.00;65364.44;10293515;28;20062;-61
2022/09/22 08:53:21;;;;;;;2.53;1.70;;;;;;;-146.19;100.00;65364.44;10305242;28;20039;-60
2022/09/22 08:59:15;;;;;;;1.75;1.50;;;;;;;-146.19;100.00;65364.44;10303724;28;20055;-61
2022/09/22 09:04:51;;;;;;;3.40;1.58;;;;;;;-146.19;100.00;65364.44;10261848;28;20574;-61
2022/09/22 09:10:56;;;;;;;2.67;1.50;;;;;;;-146.19;100.00;65364.44;10295129;28;20470;-62
2022/09/22 09:16:24;;;;;;;2.15;1.45;;;;;;;-146.19;100.00;65364.44;10274552;28;20050;-62
2022/09/22 09:21:49;;;;;;;1.80;1.40;;;;;;;-146.19;100.00;65364.44;10306901;28;20055;-60
2022/09/22 09:27:15;;;;;;;2.35;1.50;;;;;;;-146.19;100.00;65364.44;10304841;28;20047;-61
2022/09/22 09:32:48;;;;;;;2.20;1.40;;;;;;;-146.19;100.00;65364.44;10277275;28;20053;-61
2022/09/22 09:38:11;;;;;;;2.28;1.70;;;;;;;-146.19;100.00;65364.44;10305390;28;20042;-61
2022/09/22 09:43:32;;;;;;;4.15;1.50;;;;;;;-146.19;100.00;65364.44;10291257;28;20571;-61
2022/09/22 09:49:20;;;;;;;2.75;1.50;;;;;;;-146.19;100.00;65364.44;10301229;28;20551;-60
2022/09/22 09:54:40;;;;;;;2.17;1.43;;;;;;;-146.19;100.00;65364.44;10292645;28;20130;-61
2022/09/22 10:00:30;;;;;;;1.98;1.42;;;;;;;-146.19;100.00;65364.44;10286896;28;20146;-61
2022/09/22 10:06:05;;;;;;;1.98;1.33;;;;;;;-146.19;100.00;65364.44;10294418;28;20121;-61
2022/09/22 10:11:29;;;;;;;2.22;1.42;;;;;;;-146.19;100.00;65364.44;10287812;28;20409;-60
2022/09/22 10:16:52;;;;;;;2.63;1.55;;;;;;;-146.19;100.00;65364.44;10307892;28;20482;-61
2022/09/22 10:22:26;;;;;;;1.73;1.30;;;;;;;-146.19;100.00;65364.44;10328058;28;20134;-61
2022/09/22 10:27:59;;;;;;;4.68;1.70;;;;;;;-146.19;100.00;65364.44;10299188;28;20109;-61
2022/09/22 10:33:20;;;;;;;3.50;1.67;;;;;;;-146.19;100.00;65364.44;10290721;28;20054;-61
2022/09/22 10:38:43;;;;;;;1.80;1.30;;;;;;;-146.19;100.00;65364.44;10313074;28;20043;-61
2022/09/22 10:44:09;;;;;;;3.70;1.60;;;;;;;-146.19;100.00;65364.44;10300766;28;20154;-61
2022/09/22 10:49:50;;;;;;;3.83;1.77;;;;;;;-146.19;100.00;65364.44;10289928;28;20130;-61
2022/09/22 10:55:24;;;;;;;4.55;1.90;;;;;;;-146.19;100.00;65364.44;10312269;28;20069;-61
2022/09/22 11:00:44;;;;;;;4.47;2.10;;;;;;;-146.19;100.00;65364.44;10298781;28;20100;-61
2022/09/22 11:12:26;;;;;;;19.08;7.85;;;;;;;-146.19;100.00;65364.44;10312384;28;20047;-61
2022/09/22 11:17:59;;;;;;;17.40;5.90;;;;;;;-146.19;100.00;65364.44;10255701;28;20561;-61
2022/09/22 11:23:46;;;;;;;22.40;6.18;;;;;;;-146.19;100.00;65364.44;10323567;28;20062;-61
2022/09/22 11:29:19;;;;;;;15.23;6.53;;;;;;;-146.19;100.00;65364.44;10299732;28;20049;-62
2022/09/22 11:34:45;;;;;;;18.27;6.85;;;;;;;-146.19;100.00;65364.44;10296062;28;20060;-61
2022/09/22 11:40:19;;;;;;;16.33;6.07;;;;;;;-146.19;100.00;65364.44;10322093;28;20565;-61
2022/09/22 11:45:57;;;;;;;13.32;5.55;;;;;;;-146.19;100.00;65364.44;10287108;28;20055;-61
2022/09/22 11:51:45;;;;;;;14.65;5.45;;;;;;;-146.19;100.00;65364.44;10295066;28;20062;-62
2022/09/22 11:57:10;;;;;;;17.63;6.35;;;;;;;-146.19;100.00;65364.44;10293498;28;20092;-60
2022/09/22 12:02:45;;;;;;;13.32;5.78;;;;;;;-146.19;100.00;65364.44;10319741;28;20058;-61
2022/09/22 12:08:09;;;;;;;14.73;5.78;;;;;;;-146.19;100.00;65364.44;10284074;28;20051;-61
2022/09/22 12:13:29;;;;;;;13.10;5.57;;;;;;;-146.19;100.00;65364.44;10288608;28;20058;-61
2022/09/22 12:18:55;;;;;;;11.00;4.43;;;;;;;-146.19;100.00;65364.44;10280149;28;20051;-61
2022/09/22 12:24:14;;;;;;;11.65;5.15;;;;;;;-146.19;100.00;65364.44;10292886;28;20323;-62
2022/09/22 12:29:36;;;;;;;9.80;4.45;;;;;;;-146.19;100.00;65364.44;10295554;28;20047;-59
2022/09/22 12:34:57;;;;;;;12.10;4.60;;;;;;;-146.19;100.00;65364.44;10307454;28;20401;-61
2022/09/22 12:40:17;;;;;;;7.65;4.03;;;;;;;-146.19;100.00;65364.44;10295101;28;20051;-60
2022/09/22 12:45:40;;;;;;;8.02;4.13;;;;;;;-146.19;100.00;65364.44;10294245;28;20065;-61
2022/09/22 12:51:16;;;;;;;7.35;4.13;;;;;;;-146.19;100.00;65364.44;10283738;28;20050;-61
2022/09/22 12:56:45;;;;;;;9.10;3.60;;;;;;;-146.19;100.00;65364.44;10293845;28;20194;-61
2022/09/22 13:02:14;;;;;;;8.30;3.67;;;;;;;-146.19;100.00;65364.44;10306815;28;20130;-61
2022/09/22 13:07:36;;;;;;;8.73;3.50;;;;;;;-146.19;100.00;65364.44;10294563;28;20126;-62
2022/09/22 13:13:04;;;;;;;8.88;3.40;;;;;;;-146.19;100.00;65364.44;10291623;28;20051;-60
2022/09/22 13:18:34;;;;;;;7.55;3.22;;;;;;;-146.19;100.00;65364.44;10285568;28;20050;-61
2022/09/22 13:23:57;;;;;;;6.53;3.00;;;;;;;-146.19;100.00;65364.44;10331560;28;20456;-61
2022/09/22 13:29:21;;;;;;;4.95;2.90;;;;;;;-146.19;100.00;65364.44;10329023;28;20446;-61
2022/09/22 13:34:40;;;;;;;6.78;3.38;;;;;;;-146.19;100.00;65364.44;10320103;28;20453;-61
2022/09/22 13:40:00;;;;;;;7.18;3.72;;;;;;;-146.19;100.00;65364.44;10329387;28;20525;-61
2022/09/22 13:45:24;;;;;;;5.57;3.03;;;;;;;-146.19;100.00;65364.44;10326365;28;20053;-59
2022/09/22 13:50:56;;;;;;;7.00;2.88;;;;;;;-146.19;100.00;65364.44;10315510;28;20072;-61
2022/09/22 13:56:16;;;;;;;5.80;2.90;;;;;;;-146.19;100.00;65364.44;10318498;28;20050;-61
2022/09/22 14:01:45;;;;;;;5.05;2.60;;;;;;;-146.19;100.00;65364.44;10323995;28;20490;-61
2022/09/22 14:07:09;;;;;;;5.97;2.92;;;;;;;-146.19;100.00;65364.44;10288214;28;20058;-61
2022/09/22 14:12:29;;;;;;;6.60;2.70;;;;;;;-146.19;100.00;65364.44;10291164;28;20058;-61
2022/09/22 14:17:49;;;;;;;3.90;2.17;;;;;;;-146.19;100.00;65364.44;10306846;28;20083;-61
2022/09/22 14:23:17;;;;;;;3.97;2.42;;;;;;;-146.19;100.00;65364.44;10293852;28;20058;-61
2022/09/22 14:28:40;;;;;;;4.95;2.70;;;;;;;-146.19;100.00;65364.44;10296160;28;20053;-61
2022/09/22 14:34:00;;;;;;;4.03;2.65;;;;;;;-146.19;100.00;65364.44;10296307;28;20161;-59
2022/09/22 14:39:29;;;;;;;4.05;2.20;;;;;;;-146.19;100.00;65364.44;10298649;28;20105;-60
2022/09/22 14:44:50;;;;;;;4.45;2.42;;;;;;;-146.19;100.00;65364.44;10304725;28;20050;-61
2022/09/22 14:50:19;;;;;;;4.10;2.10;;;;;;;-146.19;100.00;65364.44;10321701;28;20066;-62
2022/09/22 14:55:42;;;;;;;2.88;1.98;;;;;;;-146.19;100.00;65364.44;10298491;28;20054;-61
2022/09/22 15:06:45;;;;;;;4.20;2.10;;;;;;;-146.19;100.00;65364.44;10297382;28;20061;-60
2022/09/22 15:12:05;;;;;;;4.88;2.05;;;;;;;-146.19;100.00;65364.44;10320061;28;20034;-61
2022/09/22 15:23:40;;;;;;;12.48;4.88;;;;;;;-146.19;100.00;65364.44;10315243;28;20074;-61
2022/09/22 15:29:00;;;;;;;14.95;5.28;;;;;;;-146.19;100.00;65364.44;10271260;28;20054;-61
2022/09/22 15:34:20;;;;;;;10.48;3.75;;;;;;;-146.19;100.00;65364.44;10301272;28;20077;-60
2022/09/22 15:39:39;;;;;;;8.95;3.80;;;;;;;-146.19;100.00;65364.44;10311159;28;20061;-61
2022/09/22 15:44:59;;;;;;;10.13;3.53;;;;;;;-146.19;100.00;65364.44;10295287;28;20053;-61
2022/09/22 15:50:23;;;;;;;6.38;2.20;;;;;;;-146.19;100.00;65364.44;10294742;28;20058;-61
2022/09/22 15:55:43;;;;;;;3.30;1.85;;;;;;;-146.19;100.00;65364.44;10278488;28;20128;-61
2022/09/22 16:01:04;;;;;;;5.13;1.95;;;;;;;-146.19;100.00;65364.44;10314394;28;20054;-60
2022/09/22 16:06:23;;;;;;;3.55;2.30;;;;;;;-146.19;100.00;65364.44;10322934;28;20052;-59
2022/09/22 16:11:43;;;;;;;3.25;2.00;;;;;;;-146.19;100.00;65364.44;10294761;28;20121;-61
2022/09/22 16:17:03;;;;;;;3.50;2.03;;;;;;;-146.19;100.00;65364.44;10289167;28;20113;-61
2022/09/22 16:22:24;;;;;;;4.10;2.22;;;;;;;-146.19;100.00;65364.44;10299954;28;20185;-60
2022/09/22 16:27:43;;;;;;;3.67;2.25;;;;;;;-146.19;100.00;65364.44;10316126;28;20055;-61
2022/09/22 16:33:03;;;;;;;3.55;2.22;;;;;;;-146.19;100.00;65364.44;10296246;28;20058;-61
2022/09/22 16:38:23;;;;;;;5.05;2.20;;;;;;;-146.19;100.00;65364.44;10306740;28;20050;-60
2022/09/22 16:43:43;;;;;;;3.22;2.17;;;;;;;-146.19;100.00;65364.44;10321171;28;20121;-61
2022/09/22 16:49:09;;;;;;;4.10;2.10;;;;;;;-146.19;100.00;65364.44;10278073;28;20141;-61
2022/09/22 16:54:29;;;;;;;4.57;2.40;;;;;;;-146.19;100.00;65364.44;10306985;28;20051;-60
2022/09/22 16:59:49;;;;;;;3.30;2.10;;;;;;;-146.19;100.00;65364.44;10305565;28;20058;-62
2022/09/22 17:05:10;;;;;;;4.80;1.90;;;;;;;-146.19;100.00;65364.44;10293273;28;20050;-61
2022/09/22 17:10:34;;;;;;;3.95;2.10;;;;;;;-146.19;100.00;65364.44;10306594;28;20108;-60
2022/09/22 17:16:19;;;;;;;2.90;1.75;;;;;;;-146.19;100.00;65364.44;10294308;28;20055;-60
2022/09/22 17:21:39;;;;;;;4.65;1.70;;;;;;;-146.19;100.00;65364.44;10318994;28;20050;-60
2022/09/22 17:26:58;;;;;;;4.65;1.83;;;;;;;-146.19;100.00;65364.44;10309992;28;20047;-59
2022/09/22 17:32:18;;;;;;;4.05;1.90;;;;;;;-146.19;100.00;65364.44;10284709;28;20185;-59
2022/09/22 17:37:37;;;;;;;3.25;1.70;;;;;;;-146.19;100.00;65364.44;10320746;28;20100;-59
2022/09/22 17:42:57;;;;;;;3.03;1.73;;;;;;;-146.19;100.00;65364.44;10311583;28;20054;-57
2022/09/22 17:59:33;;;;;;;2.13;1.48;;;;;;;-146.19;100.00;65364.44;10301806;28;20057;-59
2022/09/22 18:04:54;;;;;;;2.65;1.50;;;;;;;-146.19;100.00;65364.44;10311178;28;20445;-58
2022/09/22 18:10:15;;;;;;;3.47;1.85;;;;;;;-146.19;100.00;65364.44;10314957;28;20096;-59
2022/09/22 18:15:35;;;;;;;1.95;1.48;;;;;;;-146.19;100.00;65364.44;10295500;28;20058;-60
2022/09/22 18:20:55;;;;;;;6.78;1.75;;;;;;;-146.19;100.00;65364.44;10321383;28;20502;-60
2022/09/22 18:26:16;;;;;;;2.85;1.67;;;;;;;-146.19;100.00;65364.44;10299106;28;20047;-61
2022/09/22 18:31:36;;;;;;;3.85;1.48;;;;;;;-146.19;100.00;65364.44;10334971;28;20069;-61
2022/09/22 18:36:58;;;;;;;5.28;1.77;;;;;;;-146.19;100.00;65364.44;10315622;28;20043;-60
2022/09/22 18:42:18;;;;;;;4.60;1.83;;;;;;;-146.19;100.00;65364.44;10318785;28;20038;-61
2022/09/22 18:47:39;;;;;;;5.18;1.92;;;;;;;-146.19;100.00;65364.44;10332972;28;20526;-61
2022/09/22 18:52:59;;;;;;;7.20;1.98;;;;;;;-146.19;100.00;65364.44;10310988;28;20593;-60
2022/09/22 18:58:19;;;;;;;4.68;1.75;;;;;;;-146.19;100.00;65364.44;10311515;28;20121;-60
2022/09/22 19:03:40;;;;;;;6.43;1.92;;;;;;;-146.19;100.00;65364.44;10336882;28;20058;-60
2022/09/22 19:08:59;;;;;;;10.57;2.10;;;;;;;-146.19;100.00;65364.44;10335249;28;20066;-58
2022/09/22 19:14:19;;;;;;;5.85;1.63;;;;;;;-146.19;100.00;65364.44;10303689;28;20055;-59
2022/09/22 19:19:39;;;;;;;4.47;1.80;;;;;;;-146.19;100.00;65364.44;10315407;28;20494;-58
2022/09/22 19:25:01;;;;;;;4.40;1.80;;;;;;;-146.19;100.00;65364.44;10333635;28;20065;-61
2022/09/22 19:30:21;;;;;;;3.85;1.70;;;;;;;-146.19;100.00;65364.44;10334852;28;20046;-61
2022/09/22 19:35:41;;;;;;;3.13;1.75;;;;;;;-146.19;100.00;65364.44;10315753;28;20429;-59
2022/09/22 19:41:00;;;;;;;3.20;1.83;;;;;;;-146.19;100.00;65364.44;10305746;28;20050;-60
2022/09/22 19:46:19;;;;;;;3.88;1.60;;;;;;;-146.19;100.00;65364.44;10340488;28;20502;-59
2022/09/22 19:51:41;;;;;;;6.72;2.03;;;;;;;-146.19;100.00;65364.44;10347342;28;20054;-58
2022/09/22 19:57:00;;;;;;;5.18;2.00;;;;;;;-146.19;100.00;65364.44;10347441;28;20042;-59
2022/09/22 20:02:19;;;;;;;2.72;1.55;;;;;;;-146.19;100.00;65364.44;10347447;28;20049;-58
2022/09/22 20:07:40;;;;;;;4.78;1.77;;;;;;;-146.19;100.00;65364.44;10294686;28;20054;-60
2022/09/22 20:13:00;;;;;;;3.50;1.70;;;;;;;-146.19;100.00;65364.44;10292392;28;20055;-58
2022/09/22 20:18:20;;;;;;;4.28;1.80;;;;;;;-146.19;100.00;65364.44;10289962;28;20051;-61
2022/09/22 20:23:42;;;;;;;4.10;2.20;;;;;;;-146.19;100.00;65364.44;10295260;28;20050;-61
2022/09/22 20:29:01;;;;;;;2.97;1.73;;;;;;;-146.19;100.00;65364.44;10284168;28;20486;-60
2022/09/22 20:34:21;;;;;;;2.85;1.77;;;;;;;-146.19;100.00;65364.44;10307634;28;20050;-60
2022/09/22 20:39:40;;;;;;;3.30;1.70;;;;;;;-146.19;100.00;65364.44;10294718;28;20116;-61
2022/09/22 20:45:00;;;;;;;3.97;1.70;;;;;;;-146.19;100.00;65364.44;10295732;28;20058;-61
2022/09/22 20:50:20;;;;;;;2.17;1.65;;;;;;;-146.19;100.00;65364.44;10292686;28;20058;-61
2022/09/22 20:55:39;;;;;;;4.13;2.20;;;;;;;-146.19;100.00;65364.44;10315063;28;20521;-61
2022/09/22 21:01:00;;;;;;;2.38;1.70;;;;;;;-146.19;100.00;65364.44;10293374;28;20087;-61
2022/09/22 21:06:22;;;;;;;2.70;1.73;;;;;;;-146.19;100.00;65364.44;10283427;28;20043;-61
2022/09/22 21:11:42;;;;;;;3.00;2.00;;;;;;;-146.19;100.00;65364.44;10292102;28;20082;-61
2022/09/22 21:17:05;;;;;;;2.47;1.67;;;;;;;-146.19;100.00;65364.44;10282745;28;20050;-61
2022/09/22 21:22:26;;;;;;;2.58;1.92;;;;;;;-146.19;100.00;65364.44;10291675;28;20046;-61
2022/09/22 21:27:46;;;;;;;2.78;2.03;;;;;;;-146.19;100.00;65364.44;10292551;28;20089;-60
2022/09/22 21:33:05;;;;;;;2.85;2.10;;;;;;;-146.19;100.00;65364.44;10324428;28;20061;-61
2022/09/22 21:38:24;;;;;;;2.85;2.20;;;;;;;-146.19;100.00;65364.44;10344673;28;20042;-61
2022/09/22 21:43:44;;;;;;;3.15;1.92;;;;;;;-146.19;100.00;65364.44;10338784;28;20050;-57
2022/09/22 21:49:04;;;;;;;2.78;1.77;;;;;;;-146.19;100.00;65364.44;10338715;28;20054;-61
2022/09/22 21:54:23;;;;;;;2.28;1.85;;;;;;;-146.19;100.00;65364.44;10308943;28;20063;-61
2022/09/22 21:59:43;;;;;;;2.42;1.88;;;;;;;-146.19;100.00;65364.44;10289406;28;20391;-61
2022/09/22 22:05:03;;;;;;;2.97;2.00;;;;;;;-146.19;100.00;65364.44;10300389;28;20194;-61
2022/09/22 22:10:23;;;;;;;2.42;2.05;;;;;;;-146.19;100.00;65364.44;10295387;28;20055;-61
2022/09/22 22:15:42;;;;;;;3.35;2.00;;;;;;;-146.19;100.00;65364.44;10326130;28;20506;-61
2022/09/22 22:21:11;;;;;;;4.10;2.08;;;;;;;-146.19;100.00;65364.44;10334788;28;20403;-61
2022/09/22 22:26:31;;;;;;;2.58;2.10;;;;;;;-146.19;100.00;65364.44;10325880;28;20105;-60
2022/09/22 22:31:51;;;;;;;2.85;1.98;;;;;;;-146.19;100.00;65364.44;10317499;28;20054;-61
2022/09/22 22:37:11;;;;;;;2.83;2.20;;;;;;;-146.19;100.00;65364.44;10323743;28;20054;-61
2022/09/22 22:42:31;;;;;;;2.10;1.90;;;;;;;-146.19;100.00;65364.44;10350056;28;20042;-60
2022/09/22 22:47:50;;;;;;;2.45;2.08;;;;;;;-146.19;100.00;65364.44;10334672;28;20062;-61
2022/09/22 22:53:11;;;;;;;3.03;2.08;;;;;;;-146.19;100.00;65364.44;10343682;28;20104;-61
2022/09/22 22:58:34;;;;;;;2.55;2.20;;;;;;;-146.19;100.00;65364.44;10302554;28;20054;-60
2022/09/22 23:03:59;;;;;;;2.28;2.00;;;;;;;-146.19;100.00;65364.44;10301858;28;20055;-61
2022/09/22 23:09:18;;;;;;;2.92;1.92;;;;;;;-146.19;100.00;65364.44;10297932;28;20057;-61
2022/09/22 23:14:38;;;;;;;2.95;2.00;;;;;;;-146.19;100.00;65364.44;10298328;28;20046;-61
2022/09/22 23:19:57;;;;;;;3.28;2.30;;;;;;;-146.19;100.00;65364.44;10297629;28;20109;-61
2022/09/22 23:25:16;;;;;;;2.30;2.03;;;;;;;-146.19;100.00;65364.44;10297627;28;20062;-61
2022/09/22 23:30:36;;;;;;;3.17;2.08;;;;;;;-146.19;100.00;65364.44;10285943;28;20679;-61
2022/09/22 23:35:56;;;;;;;2.50;2.03;;;;;;;-146.19;100.00;65364.44;10296554;28;20055;-61
2022/09/22 23:41:15;;;;;;;2.58;2.13;;;;;;;-146.19;100.00;65364.44;10296400;28;20061;-61
2022/09/22 23:46:37;;;;;;;2.47;2.10;;;;;;;-146.19;100.00;65364.44;10284678;28;20058;-61
2022/09/22 23:51:56;;;;;;;3.67;2.50;;;;;;;-146.19;100.00;65364.44;10304466;28;20052;-61
2022/09/22 23:57:16;;;;;;;2.28;2.08;;;;;;;-146.19;100.00;65364.44;10335374;28;20051;-61
